Time;durP1;ratioP1;P1;durP2;ratioP2;P2;SDS_P1;SDS_P2;PMS_P1;PMS_P2;Temp;Humidity;BMP_temperature;BMP_pressure;BME280_temperature;BME280_humidity;BME280_pressure;Samples;Min_cycle;Max_cycle;Signal;HPM_P1;HPM_P2
2023/06/21 00:00:48;;;;;;;6.15;4.88;;;;;;;25.13;53.49;101160.44;4976347;28;20592;-78
2023/06/21 00:03:15;;;;;;;5.70;4.55;;;;;;;25.04;53.39;101135.03;4972451;28;20043;-78
2023/06/21 00:05:40;;;;;;;4.82;4.30;;;;;;;25.15;53.36;101156.56;4972308;28;20039;-78
2023/06/21 00:08:06;;;;;;;6.25;4.68;;;;;;;25.13;53.63;101153.25;4972651;28;20077;-78
2023/06/21 00:10:32;;;;;;;5.20;4.65;;;;;;;25.13;53.56;101157.75;4974393;28;20043;-78
2023/06/21 00:12:58;;;;;;;5.25;4.50;;;;;;;25.11;53.36;101149.97;4975331;28;20866;-78
2023/06/21 00:15:24;;;;;;;6.00;4.75;;;;;;;25.07;53.41;101140.75;4976086;28;20109;-78
2023/06/21 00:17:50;;;;;;;10.02;4.75;;;;;;;25.10;53.59;101148.34;4956403;28;20034;-78
2023/06/21 00:20:16;;;;;;;6.95;5.28;;;;;;;25.12;53.21;101151.63;4956016;28;20046;-78
2023/06/21 00:22:45;;;;;;;5.30;4.38;;;;;;;25.09;53.26;101141.38;4976495;28;20042;-78
2023/06/21 00:25:12;;;;;;;7.28;4.70;;;;;;;25.12;53.44;101137.47;4974540;28;20125;-78
2023/06/21 00:27:37;;;;;;;6.22;5.00;;;;;;;25.11;53.52;101141.16;4972541;28;20114;-78
2023/06/21 00:30:03;;;;;;;5.30;4.55;;;;;;;25.11;53.65;101152.63;4974675;28;20039;-78
2023/06/21 00:32:29;;;;;;;6.85;4.93;;;;;;;25.11;53.72;101149.16;4974801;28;20045;-78
2023/06/21 00:34:54;;;;;;;5.68;4.70;;;;;;;25.08;53.32;101155.72;4975171;28;20553;-78
2023/06/21 00:37:20;;;;;;;6.85;4.72;;;;;;;25.09;53.77;101149.38;4973782;28;20050;-79
2023/06/21 00:39:45;;;;;;;6.38;4.60;;;;;;;25.10;53.55;101139.53;4956929;28;20043;-78
2023/06/21 00:42:11;;;;;;;6.50;4.38;;;;;;;25.11;53.53;101139.31;4956838;28;20496;-78
2023/06/21 00:44:37;;;;;;;7.38;4.53;;;;;;;25.12;53.53;101146.28;4976130;28;20053;-78
2023/06/21 00:47:04;;;;;;;6.28;4.95;;;;;;;25.11;53.59;101151.81;4967827;28;20031;-78
2023/06/21 00:49:30;;;;;;;6.63;5.03;;;;;;;25.08;53.42;101147.72;4967840;28;20027;-78
2023/06/21 00:51:59;;;;;;;6.68;4.88;;;;;;;25.07;53.60;101151.41;4959297;28;20050;-78
2023/06/21 00:54:29;;;;;;;6.03;4.68;;;;;;;25.05;53.63;101157.97;4968957;28;20090;-78
2023/06/21 00:56:56;;;;;;;6.68;5.20;;;;;;;25.09;53.59;101160.03;4975430;28;20030;-78
2023/06/21 00:59:23;;;;;;;6.57;4.78;;;;;;;25.04;53.46;101157.16;4973100;28;20046;-78
2023/06/21 01:01:49;;;;;;;6.18;4.53;;;;;;;25.06;53.62;101157.78;4971222;28;20043;-78
2023/06/21 01:04:14;;;;;;;8.88;4.63;;;;;;;25.07;53.58;101162.06;4957402;28;20394;-78
2023/06/21 01:07:02;;;;;;;6.00;5.05;;;;;;;25.08;53.70;101168.22;4954761;28;20105;-78
2023/06/21 01:10:03;;;;;;;5.10;4.60;;;;;;;25.07;53.47;101172.75;4975827;28;20061;-78
2023/06/21 01:12:42;;;;;;;6.93;4.57;;;;;;;25.06;53.33;101164.94;4973246;28;20243;-78
2023/06/21 01:15:23;;;;;;;6.80;4.32;;;;;;;25.06;53.49;101179.09;4974378;28;20041;-78
2023/06/21 01:17:51;;;;;;;7.03;5.10;;;;;;;25.07;53.57;101174.59;4973794;28;20102;-77
2023/06/21 01:20:25;;;;;;;6.65;5.10;;;;;;;25.01;53.84;101176.22;4985008;28;20081;-77
2023/06/21 01:23:06;;;;;;;6.03;4.60;;;;;;;25.07;53.58;101180.72;4994934;28;20510;-77
2023/06/21 01:25:51;;;;;;;6.15;4.90;;;;;;;25.07;53.57;101182.56;4994213;28;20705;-77
2023/06/21 01:28:48;;;;;;;7.65;4.60;;;;;;;25.05;53.79;101185.44;4986430;28;20045;-77
2023/06/21 01:31:15;;;;;;;5.93;4.50;;;;;;;24.99;53.32;101178.25;4975104;28;20221;-77
2023/06/21 01:33:42;;;;;;;8.02;5.40;;;;;;;25.02;53.84;101185.03;4992229;28;20090;-77
2023/06/21 01:36:11;;;;;;;6.50;4.35;;;;;;;25.06;53.36;101191.59;4955025;28;20034;-77
2023/06/21 01:38:37;;;;;;;8.65;5.25;;;;;;;25.03;53.83;101195.50;4976961;28;20046;-77
2023/06/21 01:41:03;;;;;;;9.80;5.40;;;;;;;25.06;53.50;101196.94;4988333;28;20049;-77
2023/06/21 01:43:30;;;;;;;7.97;5.65;;;;;;;25.04;53.57;101185.66;4972875;28;20386;-77
2023/06/21 01:45:59;;;;;;;7.68;5.15;;;;;;;25.04;53.74;101188.31;4991564;28;20096;-77
2023/06/21 01:48:25;;;;;;;6.47;4.85;;;;;;;25.04;53.77;101191.00;4976893;28;20030;-77
2023/06/21 01:50:51;;;;;;;7.43;4.65;;;;;;;25.04;53.65;101197.13;4997211;28;20480;-77
2023/06/21 01:53:33;;;;;;;7.85;5.43;;;;;;;25.04;53.55;101186.47;4994222;28;20038;-77
2023/06/21 01:56:01;;;;;;;7.55;5.43;;;;;;;25.02;53.39;101185.88;4959764;28;20038;-77
2023/06/21 01:58:28;;;;;;;9.32;5.78;;;;;;;24.98;53.58;101185.44;4968905;28;20039;-77
2023/06/21 02:00:56;;;;;;;6.68;5.38;;;;;;;24.99;53.71;101197.75;4977482;28;20042;-77
2023/06/21 02:03:22;;;;;;;7.65;5.07;;;;;;;24.93;53.53;101181.72;4976415;28;20093;-77
2023/06/21 02:05:50;;;;;;;6.10;5.22;;;;;;;25.02;53.55;101209.03;4976196;28;20049;-78
2023/06/21 02:08:16;;;;;;;6.93;5.03;;;;;;;24.99;53.92;101215.56;4987831;28;20042;-78
2023/06/21 02:10:46;;;;;;;7.97;5.53;;;;;;;24.96;53.69;101210.63;4979320;28;20050;-77
2023/06/21 02:13:14;;;;;;;7.32;5.20;;;;;;;24.99;53.41;101220.88;4991883;28;20125;-78
2023/06/21 02:15:43;;;;;;;8.48;5.82;;;;;;;24.99;53.90;101223.56;4965178;28;20046;-77
2023/06/21 02:18:12;;;;;;;7.10;5.38;;;;;;;25.00;53.90;101219.88;4993652;28;20034;-77
2023/06/21 02:20:39;;;;;;;7.15;5.55;;;;;;;25.00;53.71;101225.22;4954394;28;20055;-78
2023/06/21 02:23:05;;;;;;;8.40;5.50;;;;;;;24.98;53.46;101225.41;4957654;28;20049;-78
2023/06/21 02:25:35;;;;;;;10.40;5.55;;;;;;;24.97;53.62;101228.25;4973781;28;20485;-78
2023/06/21 02:28:02;;;;;;;8.10;6.28;;;;;;;24.99;53.63;101226.22;4974666;28;20038;-78
2023/06/21 02:30:27;;;;;;;8.15;6.13;;;;;;;24.99;53.38;101220.88;4958141;28;20049;-78
2023/06/21 02:32:53;;;;;;;7.65;5.93;;;;;;;24.98;53.75;101229.91;4942107;28;20042;-78
2023/06/21 02:35:18;;;;;;;8.38;5.72;;;;;;;24.96;53.81;101223.97;4960419;28;20074;-77
2023/06/21 02:37:44;;;;;;;8.27;6.50;;;;;;;24.93;53.81;101232.34;4973812;28;20031;-78
2023/06/21 02:40:10;;;;;;;8.88;6.72;;;;;;;24.97;53.57;101228.25;4955038;28;20031;-78
2023/06/21 02:42:37;;;;;;;8.77;6.28;;;;;;;24.91;53.75;101215.75;4978770;28;20069;-78
2023/06/21 02:45:04;;;;;;;10.38;6.65;;;;;;;24.96;53.41;101229.28;4976840;28;20049;-78
2023/06/21 02:47:29;;;;;;;8.73;6.55;;;;;;;24.96;53.95;101234.63;4972801;28;20034;-78
2023/06/21 02:49:55;;;;;;;10.00;6.95;;;;;;;24.95;53.58;101240.94;4974911;28;20047;-78
2023/06/21 02:52:21;;;;;;;10.00;6.93;;;;;;;24.94;53.52;101248.13;4972588;28;20057;-78
2023/06/21 02:54:46;;;;;;;8.50;6.60;;;;;;;24.95;53.81;101251.59;4970842;28;20990;-77
2023/06/21 02:57:12;;;;;;;12.40;7.20;;;;;;;24.96;53.42;101248.75;4957288;28;20094;-77
2023/06/21 02:59:37;;;;;;;10.38;7.40;;;;;;;24.95;53.69;101243.59;4975773;28;20038;-78
2023/06/21 03:02:03;;;;;;;9.65;7.28;;;;;;;24.87;53.70;101241.97;4971401;28;20051;-78
2023/06/21 03:04:29;;;;;;;9.27;7.07;;;;;;;24.92;53.51;101252.84;4977770;28;20090;-78
2023/06/21 03:06:55;;;;;;;9.48;7.55;;;;;;;24.95;53.54;101254.25;4970392;28;20035;-79
2023/06/21 03:09:21;;;;;;;10.80;7.85;;;;;;;24.95;53.66;101259.59;4970712;28;20046;-78
2023/06/21 03:11:47;;;;;;;11.18;8.50;;;;;;;24.93;53.42;101250.97;4975622;28;20050;-79
2023/06/21 03:14:13;;;;;;;11.40;8.20;;;;;;;24.91;53.50;101256.53;4973747;28;20058;-78
2023/06/21 03:16:41;;;;;;;12.80;8.65;;;;;;;24.92;53.66;101262.66;4956793;28;20073;-78
2023/06/21 03:19:08;;;;;;;10.55;7.80;;;;;;;24.89;53.46;101263.91;4972830;28;20085;-78
2023/06/21 03:21:34;;;;;;;11.57;8.32;;;;;;;24.91;53.31;101280.50;4957374;28;20031;-78
2023/06/21 03:24:00;;;;;;;11.00;8.50;;;;;;;24.92;53.53;101278.66;4975167;28;20041;-78
2023/06/21 03:26:26;;;;;;;11.73;8.68;;;;;;;24.90;53.51;101270.03;4972190;28;20036;-79
2023/06/21 03:28:54;;;;;;;10.52;8.52;;;;;;;24.92;53.54;101265.34;4971373;28;20071;-78
2023/06/21 03:35:18;;;;;;;10.75;9.13;;;;;;;24.90;53.69;101276.19;4993591;28;20491;-78
2023/06/21 03:37:46;;;;;;;11.93;9.40;;;;;;;24.88;53.56;101272.91;4987495;28;20034;-77
2023/06/21 03:40:14;;;;;;;13.70;9.45;;;;;;;24.86;53.56;101272.28;4981572;28;20441;-78
2023/06/21 03:42:45;;;;;;;14.63;10.02;;;;;;;24.89;53.54;101276.41;4976144;28;20034;-77
2023/06/21 03:45:12;;;;;;;14.60;9.70;;;;;;;24.89;53.50;101285.22;4987254;28;20040;-80
2023/06/21 03:47:39;;;;;;;13.40;10.50;;;;;;;24.89;53.47;101285.22;4979941;28;20034;-77
2023/06/21 03:50:10;;;;;;;11.60;9.50;;;;;;;24.87;53.58;101283.78;4990382;28;20032;-78
2023/06/21 03:52:38;;;;;;;15.52;10.25;;;;;;;24.88;53.54;101296.88;4972937;28;20053;-78
2023/06/21 03:55:06;;;;;;;12.77;9.48;;;;;;;24.84;53.45;101298.31;4975816;28;20046;-79
2023/06/21 03:57:31;;;;;;;14.50;10.18;;;;;;;24.89;53.48;101314.50;4993861;28;20087;-77
2023/06/21 03:59:57;;;;;;;12.40;9.80;;;;;;;24.89;53.35;101303.84;4993482;28;20067;-77
2023/06/21 04:02:24;;;;;;;15.10;9.68;;;;;;;24.87;53.54;101302.41;4974336;28;20038;-78
2023/06/21 04:04:49;;;;;;;14.40;10.85;;;;;;;24.90;53.44;101304.69;4991940;28;20034;-77
2023/06/21 04:07:18;;;;;;;13.95;10.57;;;;;;;24.89;53.42;101308.38;4974897;28;20034;-77
2023/06/21 04:09:45;;;;;;;15.10;10.48;;;;;;;24.89;53.48;101311.84;4972758;28;20408;-77
2023/06/21 04:12:11;;;;;;;15.35;10.90;;;;;;;24.88;53.69;101310.22;4989667;28;20085;-77
2023/06/21 04:14:37;;;;;;;14.05;11.40;;;;;;;24.87;53.54;101313.91;4977673;28;20099;-78
2023/06/21 04:17:04;;;;;;;14.18;10.70;;;;;;;24.88;53.32;101315.53;4991469;28;20068;-77
2023/06/21 04:19:29;;;;;;;14.65;11.05;;;;;;;24.89;53.59;101319.84;4991704;28;20062;-78
2023/06/21 04:21:55;;;;;;;16.40;10.95;;;;;;;24.88;53.46;101317.38;4993700;28;20046;-78
2023/06/21 04:24:21;;;;;;;14.93;11.43;;;;;;;24.87;53.27;101318.41;4978020;28;20373;-79
2023/06/21 04:26:50;;;;;;;14.23;11.38;;;;;;;24.88;53.57;101325.38;4974065;28;20413;-78
2023/06/21 04:29:20;;;;;;;16.48;10.98;;;;;;;24.89;53.63;101329.69;4961776;28;20102;-79
2023/06/21 04:31:45;;;;;;;17.10;10.80;;;;;;;24.88;53.42;101339.50;4974926;28;20357;-79
2023/06/21 04:34:11;;;;;;;15.63;11.20;;;;;;;24.90;53.53;101344.63;4993864;28;20041;-78
2023/06/21 04:36:37;;;;;;;13.45;11.02;;;;;;;24.89;53.67;101343.00;4973266;28;20034;-79
2023/06/21 04:39:03;;;;;;;16.60;11.18;;;;;;;24.87;53.32;101334.38;4990428;28;20046;-78
2023/06/21 04:41:29;;;;;;;13.75;10.48;;;;;;;24.90;53.42;101341.97;4992102;28;20042;-78
2023/06/21 04:43:54;;;;;;;14.20;10.50;;;;;;;24.88;53.52;101338.69;4991976;28;20049;-78
2023/06/21 04:46:21;;;;;;;16.13;11.52;;;;;;;24.90;53.48;101341.97;4992962;28;20038;-78
2023/06/21 04:48:50;;;;;;;17.80;11.50;;;;;;;24.89;53.53;101341.16;4993314;28;20123;-78
2023/06/21 04:51:16;;;;;;;16.05;11.57;;;;;;;24.91;53.50;101348.94;4993318;28;20134;-77
2023/06/21 04:53:45;;;;;;;18.45;11.95;;;;;;;24.89;53.64;101350.97;4993432;28;20038;-78
2023/06/21 04:56:14;;;;;;;16.35;11.73;;;;;;;24.91;53.63;101351.59;4992633;28;20034;-80
2023/06/21 04:58:40;;;;;;;15.70;10.88;;;;;;;24.91;53.36;101359.59;4994515;28;20058;-80
2023/06/21 05:01:06;;;;;;;15.05;10.70;;;;;;;24.93;53.30;101352.22;4995471;28;20105;-80
2023/06/21 05:03:32;;;;;;;14.82;11.02;;;;;;;24.91;53.41;101348.94;4994976;28;20046;-81
2023/06/21 05:06:01;;;;;;;14.95;10.55;;;;;;;24.89;53.54;101353.66;4994100;28;20043;-80
2023/06/21 05:08:27;;;;;;;16.65;11.57;;;;;;;24.88;53.52;101352.81;4980560;28;20492;-80
2023/06/21 05:10:53;;;;;;;15.80;10.77;;;;;;;24.90;53.60;101356.09;4990667;28;20208;-77
2023/06/21 05:13:19;;;;;;;15.43;11.20;;;;;;;24.90;53.27;101358.78;4972267;28;20049;-78
2023/06/21 05:15:44;;;;;;;18.90;10.95;;;;;;;24.91;53.38;101355.09;4996565;28;20089;-78
2023/06/21 05:18:10;;;;;;;14.13;10.80;;;;;;;24.93;53.31;101354.88;4993470;28;20125;-78
2023/06/21 05:20:35;;;;;;;16.88;10.60;;;;;;;24.93;53.25;101361.03;4958955;28;20065;-78
2023/06/21 05:23:01;;;;;;;12.35;9.55;;;;;;;24.95;53.43;101366.16;4975769;28;20050;-77
2023/06/21 05:25:27;;;;;;;12.10;9.73;;;;;;;24.94;52.98;101365.34;4997999;28;20150;-78
2023/06/21 05:27:52;;;;;;;13.05;10.13;;;;;;;24.94;53.29;101356.53;4998026;28;20034;-78
2023/06/21 05:30:18;;;;;;;11.70;9.38;;;;;;;24.98;52.99;101365.78;4998580;28;20045;-77
2023/06/21 05:32:44;;;;;;;14.38;9.63;;;;;;;24.96;53.34;101381.97;4993447;28;20057;-77
2023/06/21 05:35:10;;;;;;;13.38;9.48;;;;;;;24.94;53.17;101378.66;4997135;28;20039;-77
2023/06/21 05:37:36;;;;;;;12.95;8.85;;;;;;;24.97;53.28;101382.78;4996756;28;20473;-77
2023/06/21 05:40:03;;;;;;;12.88;9.02;;;;;;;24.99;53.32;101402.06;4996975;28;20042;-77
2023/06/21 05:42:29;;;;;;;12.48;9.70;;;;;;;24.98;53.17;101400.41;4995741;28;20125;-77
2023/06/21 05:44:55;;;;;;;11.82;8.25;;;;;;;24.98;52.97;101392.44;4993297;28;20637;-77
2023/06/21 05:47:20;;;;;;;17.98;9.57;;;;;;;24.95;53.05;101388.28;4972857;28;20031;-78
2023/06/21 05:49:48;;;;;;;11.23;8.98;;;;;;;24.95;53.01;101388.28;4978534;28;20054;-77
2023/06/21 05:52:15;;;;;;;11.02;8.27;;;;;;;25.01;52.92;101400.03;4996264;28;20563;-77
2023/06/21 05:54:42;;;;;;;12.88;8.70;;;;;;;25.02;52.91;101406.19;4995819;28;20070;-77
2023/06/21 05:57:07;;;;;;;11.98;8.38;;;;;;;25.03;52.98;101407.84;4994580;28;20030;-77
2023/06/21 05:59:33;;;;;;;10.63;7.75;;;;;;;25.03;53.13;101413.16;4963002;28;20030;-76
2023/06/21 06:01:58;;;;;;;9.90;7.68;;;;;;;25.03;52.94;101419.31;4995939;28;20049;-77
2023/06/21 06:04:24;;;;;;;10.05;7.22;;;;;;;25.05;52.74;101427.09;4993104;28;20042;-76
2023/06/21 06:06:49;;;;;;;10.13;7.20;;;;;;;25.05;52.75;101427.09;4997731;28;20053;-75
2023/06/21 06:09:15;;;;;;;11.40;7.43;;;;;;;25.07;52.75;101433.88;4993918;28;20038;-79
2023/06/21 06:11:41;;;;;;;10.65;7.85;;;;;;;25.06;52.68;101434.06;4999332;28;20467;-78
2023/06/21 06:14:08;;;;;;;12.13;7.00;;;;;;;25.06;52.63;101439.41;4996253;28;20042;-78
2023/06/21 06:16:33;;;;;;;9.77;7.00;;;;;;;25.05;52.46;101448.41;4994109;28;20041;-78
2023/06/21 06:18:59;;;;;;;9.57;7.05;;;;;;;25.05;52.47;101445.75;4995993;28;20037;-78
2023/06/21 06:21:25;;;;;;;11.15;6.47;;;;;;;25.05;52.32;101451.09;4993982;28;20489;-81
2023/06/21 06:23:51;;;;;;;13.75;6.47;;;;;;;25.05;52.30;101454.56;4997535;28;20034;-81
2023/06/21 06:26:21;;;;;;;7.40;5.95;;;;;;;24.97;52.29;101446.72;4998985;28;20057;-79
2023/06/21 06:28:47;;;;;;;9.82;6.78;;;;;;;25.06;52.13;101450.06;4993081;28;20053;-73
2023/06/21 06:31:13;;;;;;;10.98;6.43;;;;;;;25.04;51.89;101460.94;4994107;28;20050;-76
2023/06/21 06:33:38;;;;;;;7.40;5.85;;;;;;;25.05;52.01;101467.91;4977566;28;20057;-78
2023/06/21 06:36:05;;;;;;;13.52;5.47;;;;;;;25.06;52.09;101471.38;4990633;28;20057;-75
2023/06/21 06:38:30;;;;;;;9.05;5.78;;;;;;;25.07;51.93;101478.34;4989358;28;20242;-76
2023/06/21 06:40:56;;;;;;;9.45;5.97;;;;;;;25.09;51.63;101478.97;4992716;28;20598;-76
2023/06/21 06:43:21;;;;;;;9.48;5.60;;;;;;;25.07;51.47;101473.84;4991658;28;20038;-76
2023/06/21 06:45:47;;;;;;;8.32;5.95;;;;;;;25.08;51.74;101477.34;4993493;28;20071;-77
2023/06/21 06:48:12;;;;;;;8.88;5.70;;;;;;;25.12;51.83;101486.56;4991251;28;20030;-76
2023/06/21 06:50:38;;;;;;;6.28;4.88;;;;;;;25.14;51.21;101495.22;4996171;28;20492;-76
2023/06/21 06:53:05;;;;;;;10.43;5.85;;;;;;;25.15;51.41;101487.00;4991865;28;20046;-76
2023/06/21 06:55:31;;;;;;;9.27;5.47;;;;;;;25.09;51.07;101479.78;4976567;28;20030;-75
2023/06/21 06:57:58;;;;;;;9.07;5.10;;;;;;;25.23;51.45;101496.66;4993209;28;20038;-76
2023/06/21 07:00:24;;;;;;;7.97;5.32;;;;;;;25.23;51.42;101494.00;4995365;28;20073;-77
2023/06/21 07:02:51;;;;;;;7.03;5.13;;;;;;;25.26;50.83;101494.41;4970997;28;20038;-76
2023/06/21 07:05:16;;;;;;;8.40;4.75;;;;;;;25.26;51.19;101496.25;4993895;28;20538;-74
2023/06/21 07:07:42;;;;;;;8.13;4.82;;;;;;;25.32;50.92;101508.81;4990433;28;20049;-75
2023/06/21 07:10:08;;;;;;;8.90;4.68;;;;;;;25.33;50.51;101507.78;4993776;28;20042;-74
2023/06/21 07:12:33;;;;;;;8.55;5.07;;;;;;;25.38;50.48;101509.84;4987517;28;20150;-75
2023/06/21 07:14:59;;;;;;;7.18;5.10;;;;;;;25.36;50.53;101502.06;4995571;28;20044;-75
2023/06/21 07:17:25;;;;;;;5.85;4.25;;;;;;;25.41;50.60;101515.59;4990618;28;20046;-74
2023/06/21 07:19:51;;;;;;;6.38;4.45;;;;;;;25.41;50.48;101493.44;4977740;28;20110;-74
2023/06/21 07:22:17;;;;;;;8.48;4.50;;;;;;;25.46;50.36;101507.00;4995941;28;20101;-74
2023/06/21 07:24:42;;;;;;;7.82;4.30;;;;;;;25.49;49.97;101506.59;4994222;28;20988;-74
2023/06/21 07:27:27;;;;;;;5.75;4.13;;;;;;;25.51;49.85;101508.06;4994154;28;20035;-74
2023/06/21 07:29:53;;;;;;;7.32;4.30;;;;;;;25.47;50.02;101497.97;4992917;28;20038;-74
2023/06/21 07:32:18;;;;;;;6.75;4.43;;;;;;;25.54;49.84;101507.63;4990553;28;20457;-75
2023/06/21 07:34:44;;;;;;;6.68;4.07;;;;;;;25.57;49.76;101509.91;4989936;28;20030;-75
2023/06/21 07:37:10;;;;;;;7.53;4.38;;;;;;;25.59;49.51;101521.19;4987075;28;20098;-75
2023/06/21 07:39:35;;;;;;;5.63;3.63;;;;;;;25.63;49.47;101528.78;4990261;28;20046;-74
2023/06/21 07:42:04;;;;;;;5.57;3.72;;;;;;;25.63;49.37;101531.44;4997651;28;20035;-76
2023/06/21 07:44:31;;;;;;;6.07;3.83;;;;;;;25.62;49.86;101538.63;4992141;28;20045;-75
2023/06/21 07:46:56;;;;;;;6.13;3.83;;;;;;;25.66;49.64;101547.03;4990701;28;20107;-76
2023/06/21 07:49:22;;;;;;;6.95;3.35;;;;;;;25.66;49.46;101545.19;4992603;28;20042;-75
2023/06/21 07:51:47;;;;;;;6.03;3.88;;;;;;;25.70;49.21;101551.81;4991685;28;20042;-75
2023/06/21 07:54:13;;;;;;;6.75;3.90;;;;;;;25.70;49.29;101546.50;4990960;28;20042;-75
2023/06/21 07:56:38;;;;;;;7.72;3.80;;;;;;;25.70;49.14;101535.00;4995244;28;20049;-76
2023/06/21 07:59:04;;;;;;;6.65;3.47;;;;;;;25.71;49.03;101544.66;5000574;28;20058;-76
2023/06/21 08:01:30;;;;;;;6.85;3.58;;;;;;;25.65;48.83;101546.22;4995980;28;20042;-76
2023/06/21 08:03:55;;;;;;;6.03;3.63;;;;;;;25.73;49.17;101563.94;4991287;28;20042;-75
2023/06/21 08:06:21;;;;;;;5.10;3.33;;;;;;;25.74;49.17;101554.91;4992532;28;20083;-75
2023/06/21 08:08:46;;;;;;;5.38;3.40;;;;;;;25.73;48.76;101567.44;4977246;28;20072;-75
2023/06/21 08:11:12;;;;;;;5.25;3.38;;;;;;;25.76;48.71;101569.69;4989523;28;20191;-76
2023/06/21 08:13:37;;;;;;;3.90;3.10;;;;;;;25.75;49.03;101560.03;4985686;28;20077;-75
2023/06/21 08:16:03;;;;;;;8.25;4.53;;;;;;;25.71;48.76;101564.13;4983252;28;20050;-73
2023/06/21 08:18:28;;;;;;;6.03;3.75;;;;;;;25.76;48.52;101566.19;4988229;28;20105;-76
2023/06/21 08:20:54;;;;;;;5.70;3.50;;;;;;;25.79;48.49;101571.13;4970474;28;20050;-76
2023/06/21 08:23:20;;;;;;;8.93;3.33;;;;;;;25.81;48.34;101567.22;4989662;28;20049;-78
2023/06/21 08:25:46;;;;;;;5.07;2.92;;;;;;;25.83;48.31;101573.19;4988132;28;20397;-76
2023/06/21 08:28:12;;;;;;;3.85;2.85;;;;;;;25.87;48.37;101570.97;4975258;28;20148;-76
2023/06/21 08:30:37;;;;;;;4.40;3.15;;;;;;;25.87;48.60;101568.28;4995575;28;20038;-76
2023/06/21 08:33:03;;;;;;;6.25;3.80;;;;;;;25.84;49.05;101569.47;4984042;28;20041;-73
2023/06/21 08:35:30;;;;;;;9.27;3.85;;;;;;;25.85;48.52;101559.63;4983503;28;20034;-69
2023/06/21 08:37:59;;;;;;;5.53;3.00;;;;;;;26.02;48.23;101565.41;4929687;28;20049;-73
2023/06/21 08:40:26;;;;;;;5.60;3.13;;;;;;;26.14;48.26;101585.16;4981988;28;20106;-73
2023/06/21 08:42:53;;;;;;;4.35;3.00;;;;;;;26.28;48.80;101583.31;4980735;28;20049;-72
2023/06/21 08:45:19;;;;;;;7.22;3.50;;;;;;;26.36;48.16;101581.28;4980408;28;20782;-70
2023/06/21 08:47:45;;;;;;;4.97;3.40;;;;;;;26.35;47.32;101587.66;4980346;28;20049;-69
2023/06/21 08:50:13;;;;;;;4.07;3.20;;;;;;;26.40;47.65;101595.91;4984019;28;20046;-70
2023/06/21 08:52:42;;;;;;;5.03;3.30;;;;;;;26.36;47.56;101578.63;4944444;28;20049;-66
2023/06/21 08:55:09;;;;;;;6.05;3.60;;;;;;;26.47;47.56;101590.56;4979826;28;20255;-65
2023/06/21 08:57:42;;;;;;;5.07;3.28;;;;;;;26.47;47.03;101602.06;4949051;28;20054;-70
2023/06/21 09:00:12;;;;;;;5.85;3.20;;;;;;;26.50;47.26;101598.97;4979451;28;20051;-70
2023/06/21 09:03:00;;;;;;;5.22;3.03;;;;;;;26.53;46.55;101600.41;4987749;28;20065;-70
2023/06/21 09:05:41;;;;;;;5.70;3.35;;;;;;;26.53;46.79;101604.91;4950263;28;20041;-66
2023/06/21 09:08:07;;;;;;;5.47;3.58;;;;;;;26.57;47.31;101614.16;4988290;28;20518;-66
2023/06/21 09:10:36;;;;;;;7.07;3.97;;;;;;;26.58;46.52;101610.50;4944879;28;20050;-67
2023/06/21 09:13:03;;;;;;;5.10;3.47;;;;;;;26.58;46.64;101613.16;4984552;28;20042;-65
2023/06/21 09:15:29;;;;;;;3.72;3.15;;;;;;;26.54;46.55;101611.91;4945419;28;20049;-65
2023/06/21 09:17:58;;;;;;;4.20;3.17;;;;;;;26.59;46.33;101614.81;4972913;28;20038;-67
2023/06/21 09:20:29;;;;;;;6.43;3.40;;;;;;;26.62;46.23;101617.06;4969407;28;20801;-66
2023/06/21 09:23:12;;;;;;;5.57;3.15;;;;;;;26.68;46.51;101622.38;4928271;28;20058;-71
2023/06/21 09:25:38;;;;;;;4.47;2.90;;;;;;;26.68;46.59;101625.06;4965911;28;20131;-70
2023/06/21 09:28:04;;;;;;;5.70;3.30;;;;;;;26.68;45.96;101617.03;4930768;28;20699;-70
2023/06/21 09:30:30;;;;;;;5.13;2.33;;;;;;;26.66;46.24;101627.13;4970645;28;20027;-73
2023/06/21 09:33:04;;;;;;;4.38;2.75;;;;;;;26.68;46.30;101624.25;4946457;28;20050;-68
2023/06/21 09:35:30;;;;;;;3.97;2.50;;;;;;;26.68;46.62;101624.25;4970371;28;20039;-75
2023/06/21 09:37:58;;;;;;;4.20;2.53;;;;;;;26.69;46.31;101629.38;4945396;28;20066;-77
2023/06/21 09:40:25;;;;;;;7.28;2.95;;;;;;;26.69;46.19;101625.88;4952189;28;20059;-77
2023/06/21 09:42:53;;;;;;;4.55;2.65;;;;;;;26.71;46.56;101634.50;4959833;28;21096;-77
2023/06/21 09:45:19;;;;;;;3.95;2.47;;;;;;;26.71;46.37;101632.66;4970345;28;20101;-77
2023/06/21 09:47:50;;;;;;;4.00;2.70;;;;;;;26.71;46.23;101629.97;4962245;28;20514;-72
2023/06/21 09:50:44;;;;;;;3.60;2.70;;;;;;;26.67;46.59;101633.28;4966851;28;20114;-67
2023/06/21 09:53:11;;;;;;;5.03;2.65;;;;;;;26.70;46.63;101641.69;4932236;28;20936;-67
2023/06/21 09:55:43;;;;;;;5.40;2.60;;;;;;;26.72;46.45;101636.97;4969607;28;20062;-67
2023/06/21 09:58:08;;;;;;;3.67;2.47;;;;;;;26.71;46.20;101640.66;4932523;28;21810;-68
2023/06/21 10:00:35;;;;;;;3.85;2.50;;;;;;;26.73;46.46;101645.81;4970240;28;20373;-69
2023/06/21 10:03:03;;;;;;;3.33;2.38;;;;;;;26.70;46.44;101632.88;4934084;28;20752;-67
2023/06/21 10:05:29;;;;;;;3.28;2.40;;;;;;;26.73;46.36;101648.47;4967401;28;20500;-67
2023/06/21 10:07:54;;;;;;;4.13;2.70;;;;;;;26.75;46.46;101641.94;4958197;28;20034;-66
2023/06/21 10:10:20;;;;;;;3.10;2.28;;;;;;;26.73;46.10;101637.78;4969578;28;20044;-67
2023/06/21 10:12:53;;;;;;;3.28;2.35;;;;;;;26.73;46.43;101643.13;4929124;28;20050;-67
2023/06/21 10:15:19;;;;;;;3.40;2.40;;;;;;;26.63;46.49;101638.22;4967046;28;20051;-67
2023/06/21 10:17:47;;;;;;;3.97;2.30;;;;;;;26.63;46.58;101630.19;4938484;28;20054;-70
2023/06/21 10:20:17;;;;;;;2.73;2.30;;;;;;;26.72;46.20;101650.31;4976264;28;20476;-70
2023/06/21 10:22:44;;;;;;;3.45;2.58;;;;;;;26.73;46.61;101645.81;4931876;28;20492;-67
2023/06/21 10:25:11;;;;;;;3.17;2.42;;;;;;;26.72;46.64;101649.50;4975802;28;20069;-70
2023/06/21 10:27:40;;;;;;;3.65;2.53;;;;;;;26.72;46.38;101650.31;4990086;28;20417;-70
2023/06/21 10:30:07;;;;;;;3.20;2.50;;;;;;;26.74;46.62;101645.59;4953772;28;20586;-69
2023/06/21 10:32:34;;;;;;;2.35;2.15;;;;;;;26.73;46.19;101643.13;4992592;28;20101;-68
2023/06/21 10:35:21;;;;;;;2.63;2.20;;;;;;;26.72;46.29;101650.31;4957762;28;20038;-68
2023/06/21 10:37:52;;;;;;;2.67;2.42;;;;;;;26.75;46.32;101641.06;4986926;28;20035;-65
2023/06/21 10:40:18;;;;;;;3.60;2.50;;;;;;;26.75;46.37;101657.97;4951519;28;20417;-67
2023/06/21 10:42:45;;;;;;;3.85;2.40;;;;;;;26.75;46.46;101651.75;4992531;28;20069;-67
2023/06/21 10:45:13;;;;;;;2.60;2.25;;;;;;;26.76;46.65;101654.25;4946571;28;21387;-67
2023/06/21 10:47:39;;;;;;;2.53;2.17;;;;;;;26.74;46.37;101650.94;4988642;28;20035;-68
2023/06/21 10:50:09;;;;;;;3.03;2.22;;;;;;;26.75;46.37;101659.78;4979004;28;20503;-66
2023/06/21 10:52:35;;;;;;;3.00;2.15;;;;;;;26.74;46.70;101658.13;4990317;28;20038;-65
2023/06/21 10:55:04;;;;;;;5.75;2.40;;;;;;;26.73;46.41;101661.84;4950994;28;20061;-63
2023/06/21 10:57:34;;;;;;;2.63;2.42;;;;;;;26.74;46.52;101655.47;4967947;28;20448;-65
2023/06/21 11:00:05;;;;;;;4.38;2.65;;;;;;;26.75;46.29;101665.13;4949669;28;20385;-65
2023/06/21 11:02:32;;;;;;;2.83;2.33;;;;;;;26.74;46.35;101656.28;4988297;28;20038;-66
2023/06/21 11:05:14;;;;;;;3.05;2.15;;;;;;;26.74;46.39;101671.50;4959874;28;20052;-64
2023/06/21 11:07:56;;;;;;;2.50;2.30;;;;;;;26.76;46.25;101666.78;4990916;28;20557;-65
2023/06/21 11:10:42;;;;;;;4.85;2.83;;;;;;;26.76;46.05;101669.47;4948307;28;20536;-66
2023/06/21 11:13:10;;;;;;;3.45;2.35;;;;;;;26.75;46.18;101668.66;4993722;28;20042;-65
2023/06/21 11:15:45;;;;;;;9.95;2.55;;;;;;;26.76;46.08;101674.81;4976476;28;20085;-67
2023/06/21 11:18:18;;;;;;;2.45;2.03;;;;;;;26.75;46.06;101676.66;4989125;28;20062;-68
2023/06/21 11:20:56;;;;;;;3.13;2.20;;;;;;;26.76;46.24;101677.47;4939462;28;20055;-67
2023/06/21 11:23:23;;;;;;;3.08;2.20;;;;;;;26.76;46.03;101682.81;4970440;28;20354;-68
2023/06/21 11:25:53;;;;;;;3.03;2.20;;;;;;;26.66;46.18;101669.88;4931300;28;20050;-69
2023/06/21 11:28:25;;;;;;;3.63;2.45;;;;;;;26.72;46.10;101689.59;4971546;28;20045;-72